createdAt,value
2023-04-09T08:28:53.522Z,2.65
2023-04-09T08:34:19.214Z,2.42
2023-04-09T08:39:53.978Z,2.25
2023-04-09T08:45:20.172Z,1.92
2023-04-09T08:50:54.945Z,1.55
2023-04-09T08:56:24.868Z,1.65
2023-04-09T09:02:02.852Z,1.63
2023-04-09T09:07:30.228Z,1.70
2023-04-09T09:13:08.215Z,1.27
2023-04-09T09:18:35.059Z,1.42
2023-04-09T09:24:13.650Z,1.45
2023-04-09T09:29:54.123Z,1.52
2023-04-09T09:35:26.285Z,1.77
2023-04-09T09:41:00.346Z,1.55
2023-04-09T09:46:29.118Z,1.23
2023-04-09T09:52:01.284Z,1.88
2023-04-09T09:57:31.316Z,1.73
2023-04-09T10:03:09.355Z,1.88
2023-04-09T10:08:34.681Z,1.90
2023-04-09T10:14:09.765Z,1.85
2023-04-09T10:19:39.412Z,3.60
2023-04-09T10:25:11.860Z,3.70
2023-04-09T10:30:55.023Z,3.20
2023-04-09T10:36:36.897Z,3.78
2023-04-09T10:42:05.094Z,3.55
2023-04-09T10:47:48.600Z,3.03
2023-04-09T10:53:18.283Z,4.10
2023-04-09T10:58:49.530Z,3.60
2023-04-09T11:04:31.010Z,3.72
2023-04-09T11:10:03.457Z,2.78
2023-04-09T11:15:33.787Z,2.92
2023-04-09T11:21:08.265Z,2.97
2023-04-09T11:26:38.816Z,2.60
2023-04-09T11:32:17.332Z,2.33
2023-04-09T11:37:57.550Z,3.15
2023-04-09T11:43:29.084Z,2.35
2023-04-09T11:48:53.669Z,2.90
2023-04-09T11:54:25.338Z,2.20
2023-04-09T11:59:52.548Z,2.35
2023-04-09T12:05:34.934Z,2.38
2023-04-09T12:10:59.777Z,2.70
2023-04-09T12:16:34.491Z,2.38
2023-04-09T12:22:07.891Z,2.50
2023-04-09T12:27:36.850Z,2.55
2023-04-09T12:33:00.830Z,2.92
2023-04-09T12:38:35.302Z,4.03
2023-04-09T12:44:04.545Z,3.33
2023-04-09T12:49:31.646Z,3.23
2023-04-09T12:55:02.097Z,2.92
2023-04-09T13:00:25.720Z,3.30
2023-04-09T13:05:59.225Z,3.10
2023-04-09T13:11:23.373Z,2.88
2023-04-09T13:16:52.649Z,3.20
2023-04-09T13:22:18.944Z,4.13
2023-04-09T13:27:46.784Z,5.35
2023-04-09T13:33:08.104Z,6.75
2023-04-09T13:38:47.523Z,5.03
2023-04-09T13:44:22.037Z,4.57
2023-04-09T13:49:49.027Z,5.22
2023-04-09T13:55:15.144Z,5.50
2023-04-09T14:00:45.142Z,5.20
2023-04-09T14:06:10.268Z,5.10
2023-04-09T14:11:41.508Z,4.70
2023-04-09T14:17:05.169Z,4.90
2023-04-09T14:22:29.439Z,6.57
2023-04-09T14:28:00.316Z,5.27
2023-04-09T14:33:23.159Z,6.07
2023-04-09T14:38:56.028Z,5.07
2023-04-09T14:44:22.525Z,4.83
2023-04-09T14:49:53.457Z,4.90
2023-04-09T14:55:19.837Z,5.53
2023-04-09T15:00:52.925Z,3.93
2023-04-09T15:06:16.989Z,5.10
2023-04-09T15:11:47.921Z,4.60
2023-04-09T15:17:17.678Z,3.90
2023-04-09T15:22:49.768Z,5.27
2023-04-09T15:28:17.028Z,4.27
2023-04-09T15:33:55.842Z,5.27
2023-04-09T15:39:22.944Z,4.10
2023-04-09T15:45:01.487Z,4.47
2023-04-09T15:50:35.909Z,4.27
2023-04-09T15:56:00.960Z,3.77
2023-04-09T16:01:32.768Z,3.67
2023-04-09T16:07:02.987Z,3.87
2023-04-09T16:12:35.584Z,4.10
2023-04-09T16:17:59.969Z,3.00
2023-04-09T16:23:36.692Z,2.70
2023-04-09T16:29:02.725Z,2.87
2023-04-09T16:34:34.976Z,2.40
2023-04-09T16:40:04.798Z,2.93
2023-04-09T16:45:40.317Z,2.50
2023-04-09T16:51:06.218Z,2.43
2023-04-09T16:56:42.771Z,3.13
2023-04-09T17:02:08.493Z,2.20
2023-04-09T17:07:41.544Z,2.70
2023-04-09T17:13:10.766Z,2.50
2023-04-09T17:18:40.650Z,2.40
2023-04-09T17:24:04.894Z,3.07
2023-04-09T17:29:39.317Z,2.70
2023-04-09T17:35:09.174Z,3.43
2023-04-09T17:40:39.713Z,3.60
2023-04-09T17:46:05.721Z,3.97
2023-04-09T17:51:35.641Z,3.17
2023-04-09T17:57:01.109Z,3.97
2023-04-09T18:02:37.109Z,4.50
2023-04-09T18:08:04.134Z,5.03
2023-04-09T18:13:36.704Z,5.93
2023-04-09T18:19:06.227Z,6.17
2023-04-09T18:24:39.529Z,5.23
2023-04-09T18:30:05.135Z,5.23
2023-04-09T18:35:41.779Z,4.67
2023-04-09T18:41:08.054Z,3.73
2023-04-09T18:46:40.921Z,4.60
2023-04-09T18:52:10.886Z,4.10
2023-04-09T18:57:52.415Z,4.80
2023-04-09T19:03:27.198Z,4.45
2023-04-09T19:08:59.671Z,2.87
2023-04-09T19:14:31.845Z,4.63
2023-04-09T19:19:58.510Z,4.23
2023-04-09T19:25:34.979Z,4.33
2023-04-09T19:31:03.525Z,4.77
2023-04-09T19:36:36.751Z,4.93
2023-04-09T19:42:06.907Z,3.97
2023-04-09T19:47:41.721Z,4.30
2023-04-09T19:53:07.346Z,3.70
2023-04-09T19:58:51.894Z,4.17
2023-04-09T20:04:25.378Z,3.90
2023-04-09T20:09:51.629Z,3.80
2023-04-09T20:15:29.617Z,4.73
2023-04-09T20:26:25.459Z,3.20
2023-04-09T20:31:54.436Z,3.83
2023-04-09T20:37:27.450Z,3.60
2023-04-09T20:42:52.979Z,4.07
2023-04-09T20:48:29.127Z,3.47
2023-04-09T20:53:54.688Z,3.70
2023-04-09T20:59:27.138Z,3.97
2023-04-09T21:04:56.218Z,3.80
2023-04-09T21:10:29.077Z,3.63
2023-04-09T21:15:53.479Z,3.60
2023-04-09T21:21:26.598Z,3.63
2023-04-09T21:26:52.033Z,3.70
2023-04-09T21:32:23.315Z,4.03
2023-04-09T21:37:49.093Z,3.80
2023-04-09T21:43:18.286Z,4.07
2023-04-09T21:48:41.083Z,3.23
2023-04-09T21:54:29.520Z,3.50
2023-04-09T22:00:01.107Z,3.10
2023-04-09T22:05:27.586Z,3.53
2023-04-09T22:11:04.664Z,3.43
2023-04-09T22:16:30.387Z,1.83
2023-04-09T22:21:59.960Z,2.90
2023-04-09T22:27:27.344Z,3.70
2023-04-09T22:32:58.609Z,3.43
2023-04-09T22:38:23.216Z,4.33
2023-04-09T22:43:58.392Z,3.00
2023-04-09T22:49:20.642Z,3.77
2023-04-09T22:54:56.577Z,3.40
2023-04-09T23:00:28.130Z,4.20
2023-04-09T23:05:52.377Z,2.73
2023-04-09T23:11:22.991Z,3.80
2023-04-09T23:16:50.387Z,3.67
2023-04-09T23:22:21.331Z,3.67
2023-04-09T23:27:46.364Z,2.90
2023-04-09T23:33:15.649Z,2.95
2023-04-09T23:38:40.308Z,2.77
2023-04-09T23:44:12.706Z,3.30
2023-04-09T23:49:40.797Z,3.50
2023-04-09T23:55:17.693Z,4.53
